EGPE/INV METAR and TAF weather

Enter ICAO airport designator
Station Type Date Time Source
EGPE METAR 2022/05/23 13:50 UTC NOAA

EGPE 231350Z 03005KT 4000 -SHRA FEW001 SCT006 BKN011 11/09 Q0999


Station Type Date Time Source
EGPE Decoded METAR 2022/05/23 13:50 UTC NOAA

Inverness / Dalcross, United Kingdom (EGPE) 57-32N 004-03W 0M
May 23, 2022 - 09:50 AM EDT / 2022.05.23 1350 UTC
Wind: from the NNE (030 degrees) at 6 MPH (5 KT):0
Visibility: 2 mile(s):0
Sky conditions: mostly cloudy
Weather: light rain showers
Temperature: 51 F (11 C)
Dew Point: 48 F (9 C)
Relative Humidity: 87%
Pressure (altimeter): 29.50 in. Hg (0999 hPa)
ob: EGPE 231350Z 03005KT 4000 -SHRA FEW001 SCT006 BKN011 11/09 Q0999
cycle: 14

Station Type Date Time Source
EGPE TAF UTC NOAA

Error!

Example: see airport list